Time;durP1;ratioP1;P1;durP2;ratioP2;P2;SDS_P1;SDS_P2;PMS_P1;PMS_P2;Temp;Humidity;BMP_temperature;BMP_pressure;BME280_temperature;BME280_humidity;BME280_pressure;Samples;Min_cycle;Max_cycle;Signal;HPM_P1;HPM_P2
2022/01/13 00:01:45;;;;;;;69.10;20.10;;;5.40;99.90;;;;;;5055943;28;20045;-60
2022/01/13 00:04:13;;;;;;;61.08;18.65;;;5.50;99.90;;;;;;5055430;28;20037;-61
2022/01/13 00:06:39;;;;;;;60.92;19.67;;;5.40;99.90;;;;;;5055335;28;20037;-61
2022/01/13 00:09:07;;;;;;;69.05;18.92;;;5.30;99.90;;;;;;5055539;28;20432;-60
2022/01/13 00:11:33;;;;;;;58.83;17.65;;;5.30;99.90;;;;;;5055408;28;20370;-48
2022/01/13 00:17:44;;;;;;;68.03;18.63;;;5.30;99.90;;;;;;5057799;28;20045;-61
2022/01/13 00:24:55;;;;;;;56.65;18.02;;;5.30;99.90;;;;;;5053541;28;20056;-59
2022/01/13 00:27:23;;;;;;;66.75;17.33;;;5.20;99.90;;;;;;5074993;28;20123;-50
2022/01/13 00:29:49;;;;;;;58.67;16.73;;;5.10;99.90;;;;;;5075057;28;20118;-60
2022/01/13 00:32:16;;;;;;;62.50;16.70;;;5.10;99.90;;;;;;5073580;28;20064;-61
2022/01/13 00:34:43;;;;;;;54.70;17.25;;;5.10;99.90;;;;;;5074824;28;20045;-60
2022/01/13 00:37:09;;;;;;;70.07;18.35;;;5.10;99.90;;;;;;5074811;28;20041;-60
2022/01/13 00:39:35;;;;;;;58.65;17.58;;;5.10;99.90;;;;;;5074828;28;20040;-50
2022/01/13 00:42:01;;;;;;;50.35;14.82;;;5.10;99.90;;;;;;5074678;28;20543;-48
2022/01/13 00:44:26;;;;;;;49.08;16.52;;;5.00;99.90;;;;;;5074405;28;20041;-49
2022/01/13 00:46:59;;;;;;;52.80;16.02;;;5.10;99.90;;;;;;5073657;28;20123;-48
2022/01/13 00:49:26;;;;;;;63.88;16.55;;;5.10;99.90;;;;;;5068418;28;20570;-60
2022/01/13 00:51:52;;;;;;;56.05;16.20;;;5.00;99.90;;;;;;5054559;28;20044;-61
2022/01/13 00:54:18;;;;;;;51.38;16.20;;;5.00;99.90;;;;;;5054396;28;20045;-48
2022/01/13 00:56:44;;;;;;;63.42;18.10;;;5.00;99.90;;;;;;5053167;28;20307;-60
2022/01/13 00:59:14;;;;;;;57.05;16.80;;;5.00;99.90;;;;;;5054453;28;20370;-60
2022/01/13 01:01:52;;;;;;;62.15;17.83;;;5.10;99.90;;;;;;5054416;28;20389;-53
2022/01/13 01:04:18;;;;;;;56.55;15.23;;;5.10;99.90;;;;;;5054315;28;20076;-50
2022/01/13 01:06:45;;;;;;;53.45;17.27;;;5.20;99.90;;;;;;5054177;28;20505;-48
2022/01/13 01:09:17;;;;;;;70.18;18.88;;;5.20;99.90;;;;;;5054346;28;20485;-60
2022/01/13 01:11:46;;;;;;;64.00;18.58;;;5.10;99.90;;;;;;5054287;28;20439;-60
2022/01/13 01:14:14;;;;;;;53.90;17.33;;;5.20;99.90;;;;;;5054527;28;20084;-60
2022/01/13 01:16:40;;;;;;;67.60;18.40;;;5.20;99.90;;;;;;5056543;28;20060;-61
2022/01/13 01:19:08;;;;;;;55.92;17.92;;;5.10;99.90;;;;;;5074505;28;20040;-61
2022/01/13 01:29:26;;;;;;;65.22;18.02;;;5.20;99.90;;;;;;5073819;28;20040;-49
2022/01/13 01:31:54;;;;;;;61.70;17.25;;;5.20;99.90;;;;;;5074034;28;20044;-60
2022/01/13 01:36:52;;;;;;;60.63;17.92;;;5.40;99.90;;;;;;5073827;28;20110;-60
2022/01/13 01:39:18;;;;;;;68.15;19.00;;;5.40;99.90;;;;;;5073356;28;20195;-51
2022/01/13 01:41:47;;;;;;;72.95;19.33;;;5.40;99.90;;;;;;5073438;28;20119;-49
2022/01/13 01:44:16;;;;;;;55.63;18.73;;;5.40;99.90;;;;;;5073659;28;20398;-50
2022/01/13 01:46:45;;;;;;;56.00;16.98;;;5.40;99.90;;;;;;5073513;28;20202;-61
2022/01/13 01:49:16;;;;;;;68.32;21.15;;;5.40;99.90;;;;;;5069065;28;20048;-60
2022/01/13 01:51:52;;;;;;;80.57;22.70;;;5.40;99.90;;;;;;5053554;28;20037;-48
2022/01/13 01:54:18;;;;;;;64.43;21.00;;;5.40;99.90;;;;;;5053183;28;20501;-49
2022/01/13 01:56:44;;;;;;;68.72;19.10;;;5.40;99.90;;;;;;5052125;28;20037;-61
2022/01/13 01:59:14;;;;;;;74.45;19.52;;;5.40;99.90;;;;;;5051991;28;20041;-49
2022/01/13 02:01:41;;;;;;;58.38;17.55;;;5.40;99.90;;;;;;5053216;28;20500;-49
2022/01/13 02:04:07;;;;;;;61.25;17.88;;;5.30;99.90;;;;;;5053344;28;20045;-60
2022/01/13 02:06:35;;;;;;;60.33;19.10;;;5.40;99.90;;;;;;5053074;28;20048;-61
2022/01/13 02:09:01;;;;;;;57.13;17.58;;;5.30;99.90;;;;;;5053074;28;20052;-61
2022/01/13 02:11:29;;;;;;;57.63;17.50;;;5.50;99.90;;;;;;5053394;28;20141;-61
2022/01/13 02:13:58;;;;;;;69.05;19.48;;;5.40;99.90;;;;;;5053097;28;20417;-47
2022/01/13 02:18:56;;;;;;;55.55;20.65;;;5.50;99.90;;;;;;5073330;28;20089;-60
2022/01/13 02:21:25;;;;;;;62.42;19.80;;;5.50;99.90;;;;;;5072830;28;20082;-60
2022/01/13 02:23:51;;;;;;;62.63;19.60;;;5.50;99.90;;;;;;5072738;28;20056;-60
2022/01/13 02:26:17;;;;;;;72.90;21.65;;;5.50;99.90;;;;;;5072926;28;20044;-61
2022/01/13 02:28:44;;;;;;;64.80;22.10;;;5.40;99.90;;;;;;5072817;28;20374;-60
2022/01/13 02:31:11;;;;;;;71.25;23.17;;;5.40;99.90;;;;;;5072671;28;20045;-48
2022/01/13 02:33:38;;;;;;;65.43;22.80;;;5.40;99.90;;;;;;5072466;28;20040;-60
2022/01/13 02:36:05;;;;;;;59.40;21.35;;;5.40;99.90;;;;;;5072404;28;20515;-60
2022/01/13 02:38:30;;;;;;;62.15;22.02;;;5.50;99.90;;;;;;5072752;28;20115;-60
2022/01/13 02:40:57;;;;;;;64.80;21.35;;;5.50;99.90;;;;;;5072557;28;20117;-61
2022/01/13 02:43:24;;;;;;;56.72;19.98;;;5.40;99.90;;;;;;5072199;28;20127;-60
2022/01/13 02:48:35;;;;;;;56.10;20.38;;;5.50;99.90;;;;;;5072227;28;20098;-48
2022/01/13 02:51:01;;;;;;;62.75;19.85;;;5.40;99.90;;;;;;5052948;28;20079;-60
2022/01/13 02:53:28;;;;;;;61.42;21.30;;;5.50;99.90;;;;;;5052441;28;20041;-47
2022/01/13 02:55:56;;;;;;;49.58;20.27;;;5.50;99.90;;;;;;5051064;28;20545;-48
2022/01/13 02:58:23;;;;;;;54.22;19.88;;;5.50;99.90;;;;;;5052311;28;20434;-48
2022/01/13 03:00:48;;;;;;;59.40;21.73;;;5.30;99.90;;;;;;5052344;28;20401;-51
2022/01/13 03:03:14;;;;;;;62.88;20.98;;;5.40;99.90;;;;;;5052034;28;20061;-49
2022/01/13 03:05:40;;;;;;;50.60;17.92;;;5.30;99.90;;;;;;5051109;28;20094;-60
2022/01/13 03:08:08;;;;;;;53.50;18.73;;;5.40;99.90;;;;;;5051369;28;20041;-61
2022/01/13 03:10:34;;;;;;;54.38;18.23;;;5.40;99.90;;;;;;5052206;28;20117;-60
2022/01/13 03:13:00;;;;;;;46.72;18.08;;;5.40;99.90;;;;;;5052020;28;20492;-60
2022/01/13 04:20:44;;;;;;;63.50;20.52;;;5.30;99.90;;;;;;5106954;27;1263132;-60
2022/01/13 04:23:10;;;;;;;56.08;19.42;;;5.30;99.90;;;;;;5135527;28;20047;-59
2022/01/13 04:25:36;;;;;;;71.13;20.17;;;5.30;99.90;;;;;;5103210;28;20126;-59
2022/01/13 04:28:03;;;;;;;58.50;17.45;;;5.20;99.90;;;;;;5128011;28;20047;-60
2022/01/13 04:30:44;;;;;;;61.78;20.25;;;5.30;99.90;;;;;;5119152;28;20104;-60
2022/01/13 04:33:12;;;;;;;64.90;18.55;;;5.30;99.90;;;;;;5104389;28;20055;-59
2022/01/13 04:35:38;;;;;;;71.03;22.08;;;5.30;99.90;;;;;;5119357;28;20044;-59
2022/01/13 04:38:04;;;;;;;64.50;19.20;;;5.20;99.90;;;;;;5135697;28;20073;-60
2022/01/13 04:40:29;;;;;;;57.63;19.27;;;5.30;99.90;;;;;;5140565;28;20055;-59
2022/01/13 04:42:56;;;;;;;56.83;20.35;;;5.30;99.90;;;;;;5139974;28;20055;-59
2022/01/13 04:45:24;;;;;;;62.80;19.20;;;5.30;99.90;;;;;;5127896;28;20044;-59
2022/01/13 04:47:52;;;;;;;68.40;19.48;;;5.30;99.90;;;;;;5119534;28;20095;-58
2022/01/13 04:50:20;;;;;;;64.13;19.00;;;5.40;99.90;;;;;;5121737;28;20048;-60
2022/01/13 04:52:45;;;;;;;60.08;18.42;;;5.40;99.90;;;;;;5120919;28;20059;-59
2022/01/13 04:55:13;;;;;;;55.80;17.55;;;5.40;99.90;;;;;;5136529;28;20392;-60
2022/01/13 04:57:40;;;;;;;63.30;18.73;;;5.80;99.90;;;;;;5122076;28;20091;-58
2022/01/13 05:00:08;;;;;;;59.50;19.48;;;5.40;99.90;;;;;;5139701;28;20042;-60
2022/01/13 05:02:35;;;;;;;77.43;21.10;;;5.30;99.90;;;;;;5140705;28;20123;-59
2022/01/13 05:05:00;;;;;;;68.40;18.15;;;5.30;99.90;;;;;;5138941;28;20035;-58
2022/01/13 05:07:26;;;;;;;85.45;21.38;;;5.30;99.90;;;;;;5104872;28;20074;-58
2022/01/13 05:09:52;;;;;;;77.57;21.48;;;5.30;99.90;;;;;;5120774;28;20058;-58
2022/01/13 05:12:18;;;;;;;84.18;21.02;;;5.40;99.90;;;;;;5139906;28;20086;-58
2022/01/13 05:14:47;;;;;;;73.05;21.38;;;5.30;99.90;;;;;;5104798;28;20077;-58
2022/01/13 05:17:34;;;;;;;69.75;20.85;;;5.40;99.90;;;;;;5139006;28;20114;-58
2022/01/13 05:20:13;;;;;;;93.90;21.15;;;5.40;99.90;;;;;;5135596;28;20122;-58
2022/01/13 05:22:39;;;;;;;65.97;19.10;;;5.30;99.90;;;;;;5107901;28;20043;-58
2022/01/13 05:25:06;;;;;;;75.95;20.20;;;5.40;99.90;;;;;;5106801;28;20498;-58
2022/01/13 05:27:31;;;;;;;76.25;20.58;;;5.40;99.90;;;;;;5124231;28;20545;-58
2022/01/13 05:29:58;;;;;;;76.55;20.55;;;5.40;99.90;;;;;;5124177;28;20039;-58
2022/01/13 05:32:24;;;;;;;86.43;20.70;;;5.40;99.90;;;;;;5124804;28;20047;-59
2022/01/13 05:34:50;;;;;;;75.88;20.13;;;5.40;99.90;;;;;;5123526;28;20044;-59
2022/01/13 05:37:16;;;;;;;82.30;22.55;;;5.50;99.90;;;;;;5106225;28;20055;-59
2022/01/13 05:39:41;;;;;;;78.10;21.42;;;5.40;99.90;;;;;;5123448;28;20122;-58
2022/01/13 05:42:07;;;;;;;67.68;21.15;;;5.50;99.90;;;;;;5124812;28;20523;-58
2022/01/13 05:44:38;;;;;;;67.13;20.77;;;5.50;99.90;;;;;;5121268;28;20103;-59
2022/01/13 05:47:09;;;;;;;78.60;22.25;;;5.50;99.90;;;;;;5103672;28;20040;-58
2022/01/13 05:49:35;;;;;;;89.38;24.27;;;5.50;99.90;;;;;;5103629;28;20056;-58
2022/01/13 05:52:02;;;;;;;77.57;21.10;;;5.60;99.90;;;;;;5102728;28;20067;-59
2022/01/13 05:54:27;;;;;;;70.70;21.05;;;5.50;99.90;;;;;;5086155;28;20048;-58
2022/01/13 05:56:53;;;;;;;81.97;23.30;;;5.60;99.90;;;;;;5102729;28;20475;-58
2022/01/13 05:59:21;;;;;;;84.38;24.58;;;5.70;99.90;;;;;;5104089;28;20541;-58
2022/01/13 06:01:46;;;;;;;74.18;21.15;;;5.70;99.90;;;;;;5084974;28;20052;-58
2022/01/13 06:04:12;;;;;;;81.28;24.00;;;5.60;99.90;;;;;;5085223;28;20052;-58
2022/01/13 06:06:38;;;;;;;75.22;23.42;;;5.60;99.90;;;;;;5085288;28;20044;-58
2022/01/13 06:09:03;;;;;;;86.30;24.10;;;5.70;99.90;;;;;;5102503;28;20131;-58
2022/01/13 06:11:37;;;;;;;68.55;21.83;;;5.70;99.90;;;;;;5107155;28;20039;-58
2022/01/13 06:14:04;;;;;;;86.32;25.52;;;5.80;99.90;;;;;;5104336;28;20050;-59
2022/01/13 06:16:29;;;;;;;97.43;24.73;;;5.70;99.90;;;;;;5124091;28;20067;-58
2022/01/13 06:18:55;;;;;;;87.55;25.88;;;5.70;99.90;;;;;;5122930;28;20032;-55
2022/01/13 06:21:21;;;;;;;69.97;23.15;;;5.70;99.90;;;;;;5123405;28;20126;-58
2022/01/13 06:23:46;;;;;;;82.38;25.35;;;5.70;99.90;;;;;;5105320;28;20104;-58
2022/01/13 06:26:12;;;;;;;78.20;22.35;;;5.70;99.90;;;;;;5122609;28;20659;-58
2022/01/13 06:28:38;;;;;;;71.15;22.70;;;5.80;99.90;;;;;;5105458;28;20051;-58
2022/01/13 06:31:04;;;;;;;91.15;24.98;;;5.80;99.90;;;;;;5103907;28;20063;-59
2022/01/13 06:33:30;;;;;;;85.18;24.13;;;5.70;99.90;;;;;;5119152;28;20047;-58
2022/01/13 06:35:56;;;;;;;84.75;24.20;;;5.70;99.90;;;;;;5119101;28;20075;-58
2022/01/13 06:38:23;;;;;;;81.90;25.63;;;5.80;99.90;;;;;;5119917;28;20453;-57
2022/01/13 06:40:49;;;;;;;87.15;23.55;;;5.80;99.90;;;;;;5119888;28;20050;-57
2022/01/13 06:43:16;;;;;;;89.55;25.77;;;5.80;99.90;;;;;;5119066;28;21003;-57
2022/01/13 06:45:42;;;;;;;87.07;26.23;;;5.80;99.90;;;;;;5119829;28;20058;-57
2022/01/13 06:48:08;;;;;;;69.35;23.92;;;5.80;99.90;;;;;;5118662;28;20062;-57
2022/01/13 06:50:35;;;;;;;92.90;26.27;;;5.70;99.90;;;;;;5119679;28;20131;-57
2022/01/13 06:53:00;;;;;;;77.10;24.92;;;5.70;99.90;;;;;;5119023;28;20091;-56
2022/01/13 06:55:27;;;;;;;77.35;24.75;;;5.80;99.90;;;;;;5119818;28;20093;-57
2022/01/13 06:57:53;;;;;;;74.43;25.40;;;5.80;99.90;;;;;;5094943;28;20039;-57
2022/01/13 07:00:20;;;;;;;86.25;26.23;;;5.90;99.90;;;;;;5090692;28;20032;-57
2022/01/13 07:02:46;;;;;;;81.00;26.70;;;5.80;99.90;;;;;;5090689;28;20048;-57
2022/01/13 07:05:12;;;;;;;86.32;27.98;;;5.90;99.90;;;;;;5112510;28;20050;-58
2022/01/13 07:07:40;;;;;;;92.57;28.80;;;5.90;99.90;;;;;;5115305;28;20070;-58
2022/01/13 07:10:10;;;;;;;93.85;29.35;;;5.90;99.90;;;;;;5090872;28;20051;-58
2022/01/13 07:12:36;;;;;;;86.03;28.52;;;5.90;99.90;;;;;;5097883;28;20050;-58
2022/01/13 07:15:03;;;;;;;87.70;30.40;;;5.90;99.90;;;;;;5119448;28;20060;-58
2022/01/13 07:17:29;;;;;;;81.57;26.10;;;5.90;99.90;;;;;;5118360;28;20047;-58
2022/01/13 07:19:55;;;;;;;75.20;26.20;;;5.90;99.90;;;;;;5118800;28;20077;-57
2022/01/13 07:22:21;;;;;;;93.07;28.67;;;5.90;99.90;;;;;;5117885;28;20051;-56
2022/01/13 07:24:47;;;;;;;82.22;27.88;;;5.90;99.90;;;;;;5119495;28;20042;-57
2022/01/13 07:27:12;;;;;;;95.05;29.17;;;5.90;99.90;;;;;;5118032;28;20040;-58
2022/01/13 07:29:39;;;;;;;101.00;31.45;;;6.00;99.90;;;;;;5119108;28;20093;-58
2022/01/13 07:32:06;;;;;;;88.60;29.70;;;6.00;99.90;;;;;;5100475;28;20036;-58
2022/01/13 07:34:32;;;;;;;84.40;31.58;;;6.10;99.90;;;;;;5099895;28;20555;-58
2022/01/13 07:36:57;;;;;;;76.45;28.35;;;6.00;99.90;;;;;;5119264;28;20050;-58
2022/01/13 07:39:23;;;;;;;91.15;31.60;;;6.00;99.90;;;;;;5117633;28;20039;-58
2022/01/13 07:41:49;;;;;;;91.60;31.75;;;6.00;99.90;;;;;;5119036;28;20046;-58
2022/01/13 07:44:17;;;;;;;90.95;30.55;;;6.10;99.90;;;;;;5099087;28;20055;-58
2022/01/13 07:46:43;;;;;;;91.65;30.23;;;6.10;99.90;;;;;;5118696;28;20488;-58
2022/01/13 07:49:08;;;;;;;93.72;30.23;;;6.00;99.90;;;;;;5118720;28;20047;-57
2022/01/13 07:51:34;;;;;;;95.25;30.58;;;6.10;99.90;;;;;;5117952;28;20040;-57
2022/01/13 07:54:01;;;;;;;86.45;29.77;;;6.00;99.90;;;;;;5119118;28;20039;-57
2022/01/13 07:56:28;;;;;;;92.13;29.30;;;6.10;99.90;;;;;;5117039;28;20052;-58
2022/01/13 07:58:54;;;;;;;74.40;26.83;;;6.10;99.90;;;;;;5119008;28;20131;-58
2022/01/13 08:01:20;;;;;;;76.55;28.02;;;6.10;99.90;;;;;;5117661;28;20051;-58
2022/01/13 08:03:46;;;;;;;74.50;27.63;;;6.20;99.90;;;;;;5119060;28;20084;-58
2022/01/13 08:06:12;;;;;;;82.72;28.30;;;6.10;99.90;;;;;;5118589;28;20071;-58
2022/01/13 08:08:38;;;;;;;80.60;29.75;;;6.10;99.90;;;;;;5117388;28;20059;-58
2022/01/13 08:11:05;;;;;;;72.80;27.65;;;6.10;99.90;;;;;;5083607;28;20479;-57
2022/01/13 08:13:31;;;;;;;80.00;28.75;;;6.20;99.90;;;;;;5117256;28;20032;-57
2022/01/13 08:16:03;;;;;;;92.90;30.65;;;6.10;99.90;;;;;;5118956;28;20046;-57
2022/01/13 08:21:13;;;;;;;94.43;32.30;;;6.20;99.90;;;;;;5117704;28;20058;-57
2022/01/13 08:23:40;;;;;;;81.22;30.23;;;6.10;99.90;;;;;;5100379;28;20052;-58
2022/01/13 08:26:05;;;;;;;96.43;29.45;;;6.10;99.90;;;;;;5117327;28;20055;-58
2022/01/13 08:28:31;;;;;;;85.60;29.75;;;6.20;99.90;;;;;;5118555;28;20058;-57
2022/01/13 08:30:58;;;;;;;81.18;28.08;;;6.10;99.90;;;;;;5117367;28;20043;-58
2022/01/13 08:33:25;;;;;;;86.82;28.30;;;6.20;99.90;;;;;;5118747;28;20047;-58
2022/01/13 08:35:51;;;;;;;88.30;27.27;;;6.10;99.90;;;;;;5117679;28;20123;-57
2022/01/13 08:38:19;;;;;;;73.63;25.40;;;6.10;99.90;;;;;;5117754;28;20075;-58
2022/01/13 08:40:50;;;;;;;86.63;28.08;;;6.00;99.90;;;;;;5118207;28;20130;-58
2022/01/13 08:43:16;;;;;;;80.43;28.50;;;6.20;99.90;;;;;;5116790;28;20056;-58
2022/01/13 08:45:42;;;;;;;64.32;26.30;;;6.20;99.90;;;;;;5118341;28;20400;-57
2022/01/13 08:48:08;;;;;;;70.63;26.50;;;6.10;99.90;;;;;;5116889;28;20047;-58
2022/01/13 08:50:35;;;;;;;76.43;25.20;;;6.20;99.90;;;;;;5118366;28;20055;-58
2022/01/13 08:53:01;;;;;;;60.42;23.90;;;6.20;99.90;;;;;;5117210;28;20093;-57
2022/01/13 08:55:27;;;;;;;77.28;25.02;;;6.20;99.90;;;;;;5119133;28;20056;-58
2022/01/13 08:57:53;;;;;;;74.05;25.27;;;6.20;99.90;;;;;;5121920;28;20044;-58
2022/01/13 09:00:19;;;;;;;83.28;27.27;;;6.10;99.90;;;;;;5121176;28;20124;-58
2022/01/13 09:02:45;;;;;;;74.72;27.40;;;6.10;99.90;;;;;;5122458;28;20078;-58
2022/01/13 09:05:16;;;;;;;67.85;26.55;;;6.20;99.90;;;;;;5120570;28;20066;-58
2022/01/13 09:07:42;;;;;;;67.63;25.83;;;6.10;99.90;;;;;;5122113;28;20044;-57
2022/01/13 09:10:09;;;;;;;69.40;25.73;;;6.20;99.90;;;;;;5121141;28;20043;-57
2022/01/13 09:12:35;;;;;;;73.18;25.90;;;6.20;99.90;;;;;;5121536;28;20067;-56
2022/01/13 09:15:13;;;;;;;65.75;27.25;;;6.20;99.90;;;;;;5121918;28;20126;-57
2022/01/13 09:17:41;;;;;;;71.80;27.90;;;6.30;99.90;;;;;;5102256;28;20040;-57
2022/01/13 09:20:08;;;;;;;68.75;26.30;;;6.30;99.90;;;;;;5121364;28;20059;-57
2022/01/13 09:22:33;;;;;;;70.63;27.35;;;6.20;99.90;;;;;;5120668;28;20047;-57
2022/01/13 09:24:59;;;;;;;77.90;29.02;;;6.10;99.90;;;;;;5121749;28;20051;-57
2022/01/13 09:27:25;;;;;;;68.75;26.90;;;6.20;99.90;;;;;;5121099;28;20043;-57
2022/01/13 09:29:50;;;;;;;66.45;26.50;;;6.20;99.90;;;;;;5100664;28;20594;-57
2022/01/13 09:32:16;;;;;;;61.33;26.38;;;6.20;99.90;;;;;;5099410;28;20055;-58
2022/01/13 09:34:43;;;;;;;68.10;28.00;;;6.30;99.90;;;;;;5099926;28;20051;-58
2022/01/13 09:37:09;;;;;;;61.33;26.80;;;6.30;99.90;;;;;;5101388;28;20104;-58
2022/01/13 09:39:35;;;;;;;66.63;27.52;;;6.30;99.90;;;;;;5099700;28;20056;-56
2022/01/13 09:42:02;;;;;;;68.95;27.52;;;6.20;99.90;;;;;;5082893;28;20592;-57
2022/01/13 09:44:28;;;;;;;68.28;31.02;;;6.30;99.90;;;;;;5099762;28;20101;-57
2022/01/13 09:46:55;;;;;;;62.40;28.08;;;6.30;99.90;;;;;;5100351;28;20570;-58
2022/01/13 09:49:21;;;;;;;62.20;27.48;;;6.30;99.90;;;;;;5100514;28;20131;-57
2022/01/13 09:51:47;;;;;;;69.72;29.35;;;6.30;99.90;;;;;;5104571;28;20074;-57
2022/01/13 09:54:13;;;;;;;66.32;28.35;;;6.40;99.90;;;;;;5110511;28;20489;-57
2022/01/13 09:56:40;;;;;;;62.70;27.02;;;6.30;99.90;;;;;;5114669;28;20071;-56
2022/01/13 09:59:06;;;;;;;66.07;27.52;;;6.40;99.90;;;;;;5110679;28;20493;-58
2022/01/13 10:01:32;;;;;;;58.25;27.10;;;6.40;99.90;;;;;;5102018;28;20054;-57
2022/01/13 10:03:58;;;;;;;65.90;28.60;;;6.40;99.90;;;;;;5100233;28;20050;-57
2022/01/13 10:06:24;;;;;;;49.45;24.05;;;6.50;99.90;;;;;;5082059;28;20123;-58
2022/01/13 10:08:57;;;;;;;60.45;28.95;;;6.40;99.90;;;;;;5098999;28;20579;-57
2022/01/13 10:11:39;;;;;;;59.70;27.35;;;6.40;99.90;;;;;;5102254;28;20620;-57
2022/01/13 10:16:56;;;;;;;53.08;24.88;;;6.50;99.90;;;;;;5119305;28;20505;-57
2022/01/13 10:19:38;;;;;;;58.97;27.85;;;6.50;99.90;;;;;;5118533;28;20050;-57
2022/01/13 10:22:14;;;;;;;55.50;27.52;;;6.60;99.90;;;;;;5118069;28;20055;-58
2022/01/13 10:24:45;;;;;;;51.97;26.60;;;6.50;99.90;;;;;;5119288;28;20051;-57
2022/01/13 10:27:18;;;;;;;58.83;27.45;;;6.60;99.90;;;;;;5118285;28;20087;-57
2022/01/13 10:29:50;;;;;;;52.03;25.48;;;6.50;99.90;;;;;;5118942;28;20048;-57
2022/01/13 10:32:18;;;;;;;59.78;28.10;;;6.60;99.90;;;;;;5118463;28;20095;-57
2022/01/13 10:34:48;;;;;;;59.88;29.30;;;6.50;99.90;;;;;;5099940;28;20058;-58
2022/01/13 10:37:19;;;;;;;54.85;27.02;;;6.60;99.90;;;;;;5118851;28;20051;-58
2022/01/13 10:39:54;;;;;;;59.58;28.70;;;6.70;99.90;;;;;;5099756;28;20073;-58
2022/01/13 10:45:06;;;;;;;;;;;6.50;99.90;;;;;;5121541;28;20044;-58
2022/01/13 10:47:32;;;;;;;59.72;27.40;;;6.50;99.90;;;;;;5121442;28;19926;-58
2022/01/13 10:50:10;;;;;;;62.65;29.30;;;6.50;99.90;;;;;;5085998;28;20044;-58
2022/01/13 10:52:37;;;;;;;66.38;29.63;;;6.60;99.90;;;;;;5121190;28;20058;-58
2022/01/13 10:55:12;;;;;;;65.57;28.55;;;6.50;99.90;;;;;;5121628;28;20394;-58
2022/01/13 10:57:41;;;;;;;63.90;29.50;;;6.60;99.90;;;;;;5121165;28;20094;-57
2022/01/13 11:00:28;;;;;;;61.53;28.13;;;6.60;99.90;;;;;;5121144;28;20063;-58
2022/01/13 11:03:17;;;;;;;62.15;28.45;;;6.70;99.90;;;;;;5121243;28;20079;-56
2022/01/13 11:05:50;;;;;;;67.95;27.63;;;6.60;99.90;;;;;;5120948;28;20050;-57
2022/01/13 11:08:32;;;;;;;71.32;29.38;;;6.70;99.90;;;;;;5121272;28;20043;-58
2022/01/13 11:11:02;;;;;;;63.58;27.83;;;6.70;99.90;;;;;;5121084;28;20115;-57
2022/01/13 11:13:32;;;;;;;72.78;29.90;;;6.60;99.90;;;;;;5101165;28;20047;-58
2022/01/13 11:15:58;;;;;;;63.78;27.00;;;6.70;99.90;;;;;;5100751;28;20050;-59
2022/01/13 11:18:27;;;;;;;71.18;30.75;;;6.70;99.90;;;;;;5099579;28;20036;-58
2022/01/13 11:20:54;;;;;;;61.67;29.75;;;6.70;99.90;;;;;;5118140;28;20442;-58
2022/01/13 11:23:21;;;;;;;60.72;29.85;;;6.70;99.90;;;;;;5120800;28;20096;-58
2022/01/13 11:25:49;;;;;;;66.05;30.38;;;6.70;99.90;;;;;;5120817;28;20144;-58
2022/01/13 11:28:15;;;;;;;56.80;27.77;;;6.70;99.90;;;;;;5120837;28;20439;-58
2022/01/13 11:30:42;;;;;;;60.20;30.17;;;6.80;99.90;;;;;;5120099;28;20050;-57
2022/01/13 11:33:08;;;;;;;61.63;29.35;;;6.70;99.90;;;;;;5120939;28;20046;-57
2022/01/13 11:35:39;;;;;;;50.08;26.48;;;6.80;99.90;;;;;;5120273;28;20031;-58
2022/01/13 11:38:07;;;;;;;54.10;26.67;;;6.70;99.90;;;;;;5120830;28;20091;-57
2022/01/13 11:40:37;;;;;;;54.08;27.90;;;6.70;99.90;;;;;;5120316;28;20035;-57
2022/01/13 11:43:06;;;;;;;59.30;25.65;;;6.80;99.90;;;;;;5120373;28;20067;-57
2022/01/13 11:45:39;;;;;;;49.17;25.88;;;6.70;99.90;;;;;;5120687;28;20044;-57
2022/01/13 11:48:17;;;;;;;51.08;25.45;;;6.60;99.90;;;;;;5120008;28;20067;-57
2022/01/13 11:50:49;;;;;;;49.88;25.17;;;6.80;99.90;;;;;;5120784;28;20052;-57
2022/01/13 11:53:27;;;;;;;51.78;25.70;;;6.70;99.90;;;;;;5120237;28;20073;-57
2022/01/13 11:55:59;;;;;;;55.63;27.25;;;6.70;99.90;;;;;;5120278;28;20040;-58
2022/01/13 11:58:33;;;;;;;55.17;27.85;;;6.70;99.90;;;;;;5120213;28;20047;-57
2022/01/13 12:01:25;;;;;;;48.75;27.80;;;6.80;99.90;;;;;;5119748;28;20036;-58
2022/01/13 12:03:56;;;;;;;52.45;26.77;;;6.80;99.90;;;;;;5120879;28;20097;-58
2022/01/13 12:06:34;;;;;;;56.37;29.20;;;6.80;99.90;;;;;;5100100;28;20060;-57
2022/01/13 12:09:00;;;;;;;56.25;28.90;;;6.80;99.90;;;;;;5105814;28;20040;-57
2022/01/13 12:11:55;;;;;;;49.58;26.60;;;6.80;99.90;;;;;;5093875;28;20060;-57
2022/01/13 12:14:24;;;;;;;48.88;24.90;;;6.80;99.90;;;;;;5119798;28;20092;-57
2022/01/13 12:16:56;;;;;;;44.20;23.88;;;6.80;99.90;;;;;;5120472;28;20066;-58
2022/01/13 12:19:35;;;;;;;45.00;26.23;;;6.80;99.90;;;;;;5116635;28;20067;-57
2022/01/13 12:22:05;;;;;;;52.63;27.90;;;6.90;99.90;;;;;;5109377;28;20044;-58
2022/01/13 12:25:01;;;;;;;50.00;23.50;;;6.90;99.90;;;;;;5102758;28;20048;-58
2022/01/13 12:27:46;;;;;;;44.92;23.27;;;6.90;99.90;;;;;;5099407;28;20071;-57
2022/01/13 12:30:21;;;;;;;52.33;24.60;;;7.00;99.90;;;;;;5120011;28;20524;-58
2022/01/13 12:32:51;;;;;;;49.60;25.42;;;7.00;99.90;;;;;;5124188;28;20039;-59
2022/01/13 12:35:38;;;;;;;46.08;24.83;;;7.20;99.90;;;;;;5123923;28;20056;-58
2022/01/13 12:38:06;;;;;;;51.70;25.48;;;7.10;99.90;;;;;;5124351;28;20099;-58
2022/01/13 12:40:40;;;;;;;51.75;25.33;;;7.10;99.90;;;;;;5105066;28;20097;-57
2022/01/13 12:46:15;;;;;;;45.35;23.92;;;7.10;99.90;;;;;;5124221;28;20047;-58
2022/01/13 12:48:49;;;;;;;46.50;23.55;;;7.30;99.90;;;;;;5123557;28;20047;-58
2022/01/13 12:51:18;;;;;;;45.80;22.63;;;7.40;99.90;;;;;;5123830;28;20104;-58
2022/01/13 12:53:45;;;;;;;38.90;21.67;;;7.30;99.90;;;;;;5123512;28;20044;-58
2022/01/13 12:56:15;;;;;;;40.58;20.52;;;7.40;99.90;;;;;;5123233;28;20047;-57
2022/01/13 12:58:44;;;;;;;43.17;21.63;;;7.40;99.90;;;;;;5105095;28;20054;-57
2022/01/13 13:01:16;;;;;;;42.13;24.13;;;7.40;99.90;;;;;;5122756;28;20044;-57
2022/01/13 13:03:43;;;;;;;40.35;20.48;;;7.50;99.90;;;;;;5123690;28;20028;-57
2022/01/13 13:06:17;;;;;;;37.97;21.42;;;7.60;99.90;;;;;;5123236;28;20031;-57
2022/01/13 13:08:47;;;;;;;40.90;21.73;;;7.50;99.90;;;;;;5123003;28;20951;-57
2022/01/13 13:11:13;;;;;;;34.58;20.13;;;7.60;99.90;;;;;;5105163;28;20469;-55
2022/01/13 13:13:46;;;;;;;37.38;19.77;;;7.60;99.90;;;;;;5122464;28;20036;-58
2022/01/13 13:16:13;;;;;;;33.28;17.65;;;7.60;99.90;;;;;;5123798;28;20058;-58
2022/01/13 13:18:39;;;;;;;35.72;19.38;;;7.60;99.90;;;;;;5104109;28;20079;-58
2022/01/13 13:21:07;;;;;;;33.25;17.65;;;7.50;99.90;;;;;;5122988;28;20488;-58
2022/01/13 13:23:36;;;;;;;31.77;18.70;;;7.60;99.90;;;;;;5122921;28;20047;-58
2022/01/13 13:26:06;;;;;;;32.88;18.42;;;7.60;99.90;;;;;;5122835;28;20044;-58
2022/01/13 13:28:39;;;;;;;39.65;20.90;;;7.70;99.90;;;;;;5122178;28;20043;-57
2022/01/13 13:31:16;;;;;;;40.58;20.60;;;7.60;99.90;;;;;;5121355;28;20036;-58
2022/01/13 13:33:47;;;;;;;37.10;19.63;;;7.70;99.90;;;;;;5123186;28;20047;-57
2022/01/13 13:36:20;;;;;;;34.70;19.42;;;7.70;99.90;;;;;;5103540;28;20115;-58
2022/01/13 13:38:49;;;;;;;38.08;18.90;;;7.70;99.90;;;;;;5122298;28;20104;-59
2022/01/13 13:41:17;;;;;;;33.38;18.52;;;7.70;99.90;;;;;;5118301;28;20047;-58
2022/01/13 13:43:43;;;;;;;30.70;17.88;;;7.70;99.90;;;;;;5113014;28;20111;-58
2022/01/13 13:46:08;;;;;;;34.30;18.55;;;7.80;99.90;;;;;;5112608;28;20074;-58
2022/01/13 13:48:34;;;;;;;36.55;19.08;;;7.60;99.90;;;;;;5093011;28;20052;-58
2022/01/13 13:51:00;;;;;;;30.30;16.75;;;7.70;99.90;;;;;;5096866;28;20039;-58
2022/01/13 13:53:26;;;;;;;34.97;16.77;;;7.60;99.90;;;;;;5104146;28;20032;-58
2022/01/13 13:55:59;;;;;;;31.13;17.00;;;7.70;99.90;;;;;;5122527;28;20040;-58
2022/01/13 13:58:25;;;;;;;32.80;17.10;;;7.70;99.90;;;;;;5122525;28;20044;-58
2022/01/13 14:01:06;;;;;;;30.33;16.83;;;7.80;99.90;;;;;;5103102;28;20137;-58
2022/01/13 14:03:43;;;;;;;33.47;17.52;;;7.90;99.90;;;;;;5122723;28;20168;-58
2022/01/13 14:06:10;;;;;;;35.97;18.40;;;7.70;99.90;;;;;;5121686;28;20046;-58
2022/01/13 14:08:53;;;;;;;38.92;17.83;;;7.70;99.90;;;;;;5113192;28;20071;-58
2022/01/13 14:11:19;;;;;;;39.97;19.67;;;7.70;99.90;;;;;;5111275;28;20048;-58
2022/01/13 14:13:45;;;;;;;35.25;15.23;;;7.70;99.90;;;;;;5094357;28;20035;-58
2022/01/13 14:16:11;;;;;;;34.15;16.05;;;7.60;99.90;;;;;;5111815;28;20128;-58
2022/01/13 14:18:37;;;;;;;30.90;16.02;;;7.60;99.90;;;;;;5101199;28;20109;-57
2022/01/13 14:21:03;;;;;;;34.47;15.88;;;7.70;99.90;;;;;;5083347;28;20055;-58
2022/01/13 14:23:42;;;;;;;34.15;17.60;;;7.60;99.90;;;;;;5083215;28;20056;-58
2022/01/13 14:26:13;;;;;;;35.80;15.65;;;7.60;99.90;;;;;;5100599;28;20062;-58